createdAt,value
2022-11-06T00:00:48.854Z,8.41
2022-11-06T00:03:16.969Z,8.49
2022-11-06T00:06:03.559Z,8.52
2022-11-06T00:08:37.639Z,8.45
2022-11-06T00:11:15.103Z,8.50
2022-11-06T00:13:44.299Z,8.50
2022-11-06T00:16:16.096Z,8.27
2022-11-06T00:18:43.936Z,8.47
2022-11-06T00:21:18.460Z,8.11
2022-11-06T00:23:49.732Z,8.49
2022-11-06T00:26:25.906Z,8.55
2022-11-06T00:28:55.103Z,8.35
2022-11-06T00:31:27.965Z,8.59
2022-11-06T00:33:58.477Z,8.63
2022-11-06T00:36:30.450Z,8.40
2022-11-06T00:38:59.895Z,8.57
2022-11-06T00:41:28.658Z,8.62
2022-11-06T00:44:02.024Z,8.67
2022-11-06T00:46:30.390Z,8.54
2022-11-06T00:48:58.811Z,8.27
2022-11-06T00:51:30.932Z,8.67
2022-11-06T00:54:02.578Z,8.40
2022-11-06T00:56:31.934Z,8.38
2022-11-06T00:59:02.194Z,8.66
2022-11-06T01:01:33.521Z,8.27
2022-11-06T01:04:04.437Z,8.60
2022-11-06T01:06:36.527Z,8.64
2022-11-06T01:09:06.913Z,8.61
2022-11-06T01:12:13.727Z,8.37
2022-11-06T01:14:33.346Z,8.61
2022-11-06T01:17:01.569Z,8.76
2022-11-06T01:19:29.406Z,8.94
2022-11-06T01:22:00.416Z,8.69
2022-11-06T01:24:29.483Z,8.68
2022-11-06T01:27:31.875Z,8.76
2022-11-06T01:30:00.204Z,8.71
2022-11-06T01:32:28.313Z,8.76
2022-11-06T01:34:56.130Z,8.68
2022-11-06T01:37:24.125Z,8.45
2022-11-06T01:39:52.372Z,8.29
2022-11-06T01:42:21.910Z,8.70
2022-11-06T01:45:34.244Z,8.46
2022-11-06T01:48:03.335Z,8.49
2022-11-06T01:50:31.689Z,8.65
2022-11-06T01:53:02.739Z,8.62
2022-11-06T01:55:38.395Z,8.74
2022-11-06T01:58:09.717Z,8.74
2022-11-06T02:00:38.036Z,8.52
2022-11-06T02:03:06.888Z,8.75
2022-11-06T02:05:34.815Z,8.82
2022-11-06T02:08:03.792Z,8.77
2022-11-06T02:10:32.736Z,8.78
2022-11-06T02:13:30.077Z,8.77
2022-11-06T02:16:38.872Z,8.75
2022-11-06T02:20:02.656Z,8.80
2022-11-06T02:23:08.384Z,8.76
2022-11-06T02:25:54.322Z,8.76
2022-11-06T02:28:32.915Z,8.55
2022-11-06T02:31:10.363Z,8.37
2022-11-06T02:33:56.066Z,8.79
2022-11-06T02:36:33.096Z,8.83
2022-11-06T02:39:09.924Z,8.80
2022-11-06T02:41:43.825Z,8.54
2022-11-06T02:44:19.875Z,8.88
2022-11-06T02:46:53.469Z,8.93
2022-11-06T02:49:36.997Z,8.58
2022-11-06T02:52:26.850Z,8.90
2022-11-06T02:55:23.335Z,8.84
2022-11-06T02:57:54.873Z,8.99
2022-11-06T03:00:24.788Z,8.89
2022-11-06T03:03:07.026Z,8.90
2022-11-06T03:05:49.083Z,8.73
2022-11-06T03:08:40.843Z,8.92
2022-11-06T03:11:29.667Z,8.93
2022-11-06T03:14:14.978Z,8.61
2022-11-06T03:17:19.682Z,8.74
2022-11-06T03:20:15.088Z,8.58
2022-11-06T03:22:48.437Z,8.91
2022-11-06T03:25:43.465Z,8.86
2022-11-06T03:28:29.720Z,8.87
2022-11-06T03:31:08.127Z,8.78
2022-11-06T03:34:06.804Z,8.69
2022-11-06T03:36:44.591Z,8.91
2022-11-06T03:39:21.990Z,8.85
2022-11-06T03:42:06.739Z,8.98
2022-11-06T03:44:43.453Z,8.82
2022-11-06T03:47:34.462Z,8.90
2022-11-06T03:50:29.471Z,9.07
2022-11-06T03:53:08.253Z,9.11
2022-11-06T03:55:48.934Z,8.99
2022-11-06T03:58:26.281Z,8.96
2022-11-06T04:00:56.712Z,8.66
2022-11-06T04:03:36.018Z,8.98
2022-11-06T04:06:27.238Z,8.99
2022-11-06T04:09:19.008Z,8.56
2022-11-06T04:12:08.862Z,8.99
2022-11-06T04:14:41.595Z,8.95
2022-11-06T04:17:14.248Z,8.90
2022-11-06T04:20:05.456Z,8.99
2022-11-06T04:24:09.788Z,9.00
2022-11-06T04:26:53.067Z,8.93
2022-11-06T04:29:48.274Z,8.94
2022-11-06T04:33:04.213Z,9.06
2022-11-06T04:35:48.294Z,9.02
2022-11-06T04:38:37.437Z,8.23
2022-11-06T04:41:26.547Z,8.93
2022-11-06T04:44:23.168Z,8.90
2022-11-06T04:47:13.204Z,8.94
2022-11-06T04:49:43.690Z,8.85
2022-11-06T04:52:23.591Z,8.66
2022-11-06T04:54:52.556Z,8.82
2022-11-06T04:57:20.437Z,8.90
2022-11-06T04:59:48.281Z,8.98
2022-11-06T05:02:17.507Z,8.67
2022-11-06T05:04:45.782Z,8.92
2022-11-06T05:07:15.149Z,8.93
2022-11-06T05:09:43.664Z,8.68
2022-11-06T05:12:11.706Z,8.94
2022-11-06T05:14:39.679Z,8.96
2022-11-06T05:17:08.170Z,8.98
2022-11-06T05:19:35.961Z,8.95
2022-11-06T05:22:22.963Z,8.68
2022-11-06T05:24:51.073Z,8.95
2022-11-06T05:27:18.992Z,8.74
2022-11-06T05:29:46.875Z,9.05
2022-11-06T05:32:15.093Z,8.95
2022-11-06T05:34:43.322Z,8.47
2022-11-06T05:37:11.134Z,8.76
2022-11-06T05:39:41.881Z,9.05
2022-11-06T05:42:10.045Z,9.10
2022-11-06T05:44:38.097Z,9.07
2022-11-06T05:47:08.228Z,9.05
2022-11-06T05:49:36.239Z,8.97
2022-11-06T05:52:04.357Z,9.09
2022-11-06T05:54:32.345Z,9.14
2022-11-06T05:57:00.152Z,9.04
2022-11-06T05:59:28.088Z,9.06
2022-11-06T06:01:56.905Z,8.70
2022-11-06T06:04:24.922Z,9.06
2022-11-06T06:06:52.983Z,9.01
2022-11-06T06:09:22.391Z,8.77
2022-11-06T06:11:54.268Z,8.83
2022-11-06T06:14:22.589Z,8.72
2022-11-06T06:16:50.405Z,9.12
2022-11-06T06:19:19.373Z,9.16
2022-11-06T06:21:47.868Z,9.11
2022-11-06T06:24:15.914Z,9.05
2022-11-06T06:26:44.167Z,9.00
2022-11-06T06:29:12.278Z,9.11
2022-11-06T06:31:40.227Z,9.07
2022-11-06T06:34:08.748Z,8.99
2022-11-06T06:36:36.622Z,9.01
2022-11-06T06:39:05.701Z,9.13
2022-11-06T06:41:34.642Z,9.07
2022-11-06T06:44:02.601Z,9.13
2022-11-06T06:46:30.749Z,9.15
2022-11-06T06:48:59.303Z,9.08
2022-11-06T06:51:27.296Z,9.11
2022-11-06T06:53:55.341Z,9.11
2022-11-06T06:56:23.381Z,9.19
2022-11-06T06:58:55.665Z,9.20
2022-11-06T07:01:23.865Z,9.29
2022-11-06T07:03:51.855Z,9.31
2022-11-06T07:06:20.631Z,9.29
2022-11-06T07:09:39.354Z,9.52
2022-11-06T07:12:08.038Z,9.31
2022-11-06T07:14:35.994Z,9.30
2022-11-06T07:17:04.096Z,9.37
2022-11-06T07:19:32.008Z,9.51
2022-11-06T07:21:59.853Z,9.22
2022-11-06T07:24:27.812Z,9.44
2022-11-06T07:26:56.143Z,9.52
2022-11-06T07:29:24.162Z,9.41
2022-11-06T07:31:52.125Z,9.34
2022-11-06T07:34:20.233Z,9.32
2022-11-06T07:36:48.620Z,9.30
2022-11-06T07:39:17.183Z,9.40
2022-11-06T07:41:45.121Z,9.50
2022-11-06T07:44:13.320Z,9.28
2022-11-06T07:46:41.406Z,9.45
2022-11-06T07:49:10.324Z,9.46
2022-11-06T07:51:38.447Z,9.46
2022-11-06T07:54:06.977Z,9.31
2022-11-06T07:56:35.213Z,9.48
2022-11-06T07:59:03.725Z,9.40
2022-11-06T08:01:32.106Z,9.50
2022-11-06T08:04:00.015Z,9.34
2022-11-06T08:06:27.948Z,9.37
2022-11-06T08:08:58.863Z,9.47
2022-11-06T08:11:27.843Z,9.22
2022-11-06T08:13:57.981Z,9.59
2022-11-06T08:16:26.256Z,9.54
2022-11-06T08:18:54.246Z,9.68
2022-11-06T08:21:22.212Z,9.28
2022-11-06T08:23:50.299Z,9.65
2022-11-06T08:26:18.448Z,9.57
2022-11-06T08:28:46.529Z,9.79
2022-11-06T08:31:14.661Z,9.83
2022-11-06T08:33:43.977Z,9.96
2022-11-06T08:36:12.021Z,10.00
2022-11-06T08:38:40.798Z,9.88
2022-11-06T08:41:12.437Z,9.97
2022-11-06T08:43:40.871Z,9.93
2022-11-06T08:46:10.274Z,9.88
2022-11-06T08:48:38.257Z,9.86
2022-11-06T08:51:07.219Z,9.54
2022-11-06T08:53:35.350Z,9.79
2022-11-06T08:56:05.382Z,9.91
2022-11-06T08:58:33.359Z,9.96
2022-11-06T09:01:01.585Z,10.03
2022-11-06T09:03:29.760Z,10.10
2022-11-06T09:06:00.283Z,10.22
2022-11-06T09:08:28.441Z,10.16
2022-11-06T09:10:58.890Z,10.29
2022-11-06T09:13:27.545Z,10.46
2022-11-06T09:15:55.415Z,10.13
2022-11-06T09:18:23.307Z,10.19
2022-11-06T09:20:56.355Z,10.40
2022-11-06T09:23:25.400Z,10.10
2022-11-06T09:25:53.348Z,10.16
2022-11-06T09:28:22.548Z,10.41
2022-11-06T09:30:50.571Z,10.42
2022-11-06T09:33:19.176Z,10.63
2022-11-06T09:35:48.263Z,10.09
2022-11-06T09:38:16.571Z,10.93
2022-11-06T09:40:49.261Z,10.68
2022-11-06T09:44:17.335Z,10.86
2022-11-06T09:46:48.629Z,10.81
2022-11-06T09:49:46.496Z,10.78
2022-11-06T09:52:23.520Z,10.74
2022-11-06T09:55:27.310Z,10.91
2022-11-06T09:58:02.908Z,10.73
2022-11-06T10:00:31.261Z,10.69
2022-11-06T10:03:12.895Z,10.41
2022-11-06T10:05:41.767Z,10.33
2022-11-06T10:08:22.641Z,10.93
2022-11-06T10:11:04.264Z,10.79
2022-11-06T10:13:38.095Z,10.89
2022-11-06T10:16:19.119Z,10.75
2022-11-06T10:19:02.260Z,10.75
2022-11-06T10:21:43.828Z,11.01
2022-11-06T10:24:44.462Z,10.99
2022-11-06T10:27:27.678Z,10.91
2022-11-06T10:30:04.750Z,10.93
2022-11-06T10:32:45.381Z,11.11
2022-11-06T10:35:44.081Z,11.10
2022-11-06T10:38:25.240Z,11.01
2022-11-06T10:40:55.172Z,11.45
2022-11-06T10:43:39.049Z,11.65
2022-11-06T10:46:36.334Z,11.82
2022-11-06T10:49:28.049Z,12.10
2022-11-06T10:52:45.691Z,12.22
2022-11-06T10:55:53.928Z,12.45
2022-11-06T10:58:31.770Z,12.55
2022-11-06T11:01:06.005Z,12.45
2022-11-06T11:03:43.866Z,11.93
2022-11-06T11:06:12.383Z,11.48
2022-11-06T11:08:46.013Z,12.04
2022-11-06T11:11:13.924Z,12.03
2022-11-06T11:13:51.059Z,11.77
2022-11-06T11:16:30.192Z,11.98
2022-11-06T11:19:35.266Z,11.77
2022-11-06T11:22:19.315Z,12.12
2022-11-06T11:25:08.182Z,12.40
2022-11-06T11:27:44.380Z,12.37
2022-11-06T11:30:27.540Z,12.36
2022-11-06T11:32:57.950Z,12.50
2022-11-06T11:35:35.769Z,12.42
2022-11-06T11:38:16.982Z,12.38
2022-11-06T11:40:45.913Z,12.33
2022-11-06T11:43:28.949Z,12.40
2022-11-06T11:46:09.477Z,12.69
2022-11-06T11:48:52.459Z,12.52
2022-11-06T11:51:37.368Z,12.33
2022-11-06T11:54:23.777Z,12.10
2022-11-06T11:57:05.269Z,12.20
2022-11-06T12:00:03.143Z,12.23
2022-11-06T12:02:53.313Z,12.33
2022-11-06T12:05:35.471Z,12.41
2022-11-06T12:08:04.906Z,12.39
2022-11-06T12:10:36.537Z,12.47
2022-11-06T12:13:23.088Z,12.52
2022-11-06T12:16:09.275Z,12.87
2022-11-06T12:18:57.635Z,12.93
2022-11-06T12:21:30.194Z,12.75
2022-11-06T12:24:03.900Z,12.87
2022-11-06T12:27:03.394Z,12.68
2022-11-06T12:30:06.005Z,12.51
2022-11-06T12:32:44.965Z,12.18
2022-11-06T12:35:32.449Z,12.37
2022-11-06T12:38:35.199Z,12.46
2022-11-06T12:41:08.357Z,12.31
2022-11-06T12:43:48.377Z,12.13
2022-11-06T12:46:35.889Z,12.30
2022-11-06T12:49:21.914Z,12.11
2022-11-06T12:51:52.766Z,11.81
2022-11-06T12:55:15.780Z,11.53
2022-11-06T12:58:04.454Z,11.65
2022-11-06T13:00:51.943Z,10.84
2022-11-06T13:03:28.877Z,11.66
2022-11-06T13:06:05.969Z,11.60
2022-11-06T13:09:06.822Z,11.76
2022-11-06T13:12:07.009Z,11.46
2022-11-06T13:15:01.829Z,11.37
2022-11-06T13:17:44.696Z,11.88
2022-11-06T13:20:32.022Z,11.84
2022-11-06T13:23:40.984Z,11.89
2022-11-06T13:26:45.790Z,11.79
2022-11-06T13:29:17.724Z,11.89
2022-11-06T13:32:01.558Z,11.95
2022-11-06T13:34:56.566Z,11.67
2022-11-06T13:37:41.268Z,11.93
2022-11-06T13:40:25.903Z,11.96
2022-11-06T13:43:06.379Z,11.98
2022-11-06T13:46:05.250Z,11.96
2022-11-06T13:49:31.439Z,11.81
2022-11-06T13:52:18.102Z,11.75
2022-11-06T13:55:22.692Z,11.78
2022-11-06T13:58:12.978Z,11.70
2022-11-06T14:00:53.002Z,11.68
2022-11-06T14:03:52.345Z,11.64
2022-11-06T14:06:25.784Z,11.56
2022-11-06T14:09:02.290Z,11.53
2022-11-06T14:11:35.040Z,11.44
2022-11-06T14:14:26.942Z,11.19
2022-11-06T14:17:24.262Z,11.32
2022-11-06T14:19:52.079Z,11.26
2022-11-06T14:22:38.735Z,11.14
2022-11-06T14:25:28.619Z,11.17
2022-11-06T14:27:56.441Z,11.11
2022-11-06T14:30:57.562Z,11.11
2022-11-06T14:33:43.706Z,11.11
2022-11-06T14:36:37.636Z,11.12
2022-11-06T14:39:13.571Z,11.05
2022-11-06T14:41:45.726Z,11.00
2022-11-06T14:44:34.146Z,10.92
2022-11-06T14:47:06.661Z,10.90
2022-11-06T14:49:46.412Z,10.67
2022-11-06T14:52:16.629Z,10.86
2022-11-06T14:55:05.508Z,10.89
2022-11-06T14:57:41.257Z,10.78
2022-11-06T15:00:35.669Z,10.76
2022-11-06T15:03:17.368Z,10.71
2022-11-06T15:05:51.051Z,10.74
2022-11-06T15:08:50.810Z,10.85
2022-11-06T15:11:30.869Z,10.79
2022-11-06T15:14:07.792Z,10.87
2022-11-06T15:16:47.393Z,10.44
2022-11-06T15:19:27.109Z,10.53
2022-11-06T15:22:30.840Z,10.68
2022-11-06T15:25:21.877Z,10.33
2022-11-06T15:28:11.720Z,10.55
2022-11-06T15:31:04.582Z,10.35
2022-11-06T15:33:42.025Z,10.02
2022-11-06T15:36:22.865Z,10.23
2022-11-06T15:38:51.362Z,10.16
2022-11-06T15:41:23.740Z,10.34
2022-11-06T15:44:22.277Z,10.48
2022-11-06T15:46:59.920Z,10.41
2022-11-06T15:49:28.452Z,10.40
2022-11-06T15:52:01.901Z,10.12
2022-11-06T15:54:39.714Z,10.31
2022-11-06T15:57:28.311Z,10.27
2022-11-06T16:00:16.352Z,10.27
2022-11-06T16:02:58.222Z,10.22
2022-11-06T16:05:28.714Z,10.08
2022-11-06T16:07:59.601Z,10.04
2022-11-06T16:10:27.970Z,9.95
2022-11-06T16:12:56.523Z,9.80
2022-11-06T16:16:24.582Z,10.11
2022-11-06T16:18:54.256Z,10.04
2022-11-06T16:21:28.218Z,9.71
2022-11-06T16:24:02.344Z,9.97
2022-11-06T16:26:34.045Z,9.97
2022-11-06T16:29:03.514Z,9.94
2022-11-06T16:31:32.062Z,9.86
2022-11-06T16:34:33.332Z,9.84
2022-11-06T16:37:35.502Z,9.95
2022-11-06T16:40:04.410Z,9.99
2022-11-06T16:42:39.042Z,9.89
2022-11-06T16:45:21.561Z,9.87
2022-11-06T16:48:25.289Z,9.66
2022-11-06T16:51:23.262Z,9.81
2022-11-06T16:53:57.540Z,9.62
2022-11-06T16:56:30.889Z,9.92
2022-11-06T16:59:09.149Z,9.94
2022-11-06T17:01:46.702Z,9.90
2022-11-06T17:04:31.044Z,9.93
2022-11-06T17:06:59.366Z,9.90
2022-11-06T17:09:33.307Z,9.90
2022-11-06T17:12:03.265Z,9.65
2022-11-06T17:14:33.554Z,9.79
2022-11-06T17:17:02.687Z,9.89
2022-11-06T17:19:31.168Z,9.81
2022-11-06T17:21:59.820Z,9.84
2022-11-06T17:24:42.908Z,9.49
2022-11-06T17:27:11.117Z,9.61
2022-11-06T17:29:39.154Z,9.78
2022-11-06T17:32:07.767Z,9.80
2022-11-06T17:34:38.444Z,9.69
2022-11-06T17:37:06.809Z,9.71
2022-11-06T17:39:34.736Z,9.64
2022-11-06T17:42:07.657Z,9.58
2022-11-06T17:44:35.754Z,9.36
2022-11-06T17:47:04.087Z,9.74
2022-11-06T17:49:32.129Z,9.51
2022-11-06T17:52:00.714Z,9.75
2022-11-06T17:54:33.421Z,9.34
2022-11-06T17:57:05.231Z,9.69
2022-11-06T17:59:33.947Z,9.15
2022-11-06T18:02:02.623Z,9.64
2022-11-06T18:04:31.065Z,9.36
2022-11-06T18:06:59.079Z,9.12
2022-11-06T18:09:27.379Z,9.63
2022-11-06T18:11:56.718Z,9.62
2022-11-06T18:14:29.402Z,8.80
2022-11-06T18:16:57.861Z,9.41
2022-11-06T18:19:27.123Z,9.37
2022-11-06T18:21:56.100Z,9.61
2022-11-06T18:24:25.198Z,9.64
2022-11-06T18:26:53.584Z,9.61
2022-11-06T18:29:21.627Z,9.58
2022-11-06T18:31:49.698Z,9.17
2022-11-06T18:34:21.095Z,9.31
2022-11-06T18:36:51.101Z,9.17
2022-11-06T18:39:19.752Z,9.07
2022-11-06T18:41:49.118Z,9.29
2022-11-06T18:44:18.368Z,9.05
2022-11-06T18:46:47.423Z,9.39
2022-11-06T18:49:16.492Z,9.12
2022-11-06T18:51:44.786Z,9.40
2022-11-06T18:54:13.620Z,9.35
2022-11-06T18:56:42.222Z,9.35
2022-11-06T18:59:17.110Z,9.35
2022-11-06T19:01:45.843Z,9.27
2022-11-06T19:04:14.226Z,9.24
2022-11-06T19:06:42.720Z,9.05
2022-11-06T19:09:11.005Z,9.24
2022-11-06T19:11:39.143Z,8.94
2022-11-06T19:14:08.334Z,9.25
2022-11-06T19:16:36.878Z,9.16
2022-11-06T19:19:11.636Z,9.13
2022-11-06T19:21:43.261Z,9.26
2022-11-06T19:24:12.166Z,9.01
2022-11-06T19:26:40.630Z,9.26
2022-11-06T19:29:09.737Z,9.32
2022-11-06T19:31:38.614Z,9.41
2022-11-06T19:34:08.886Z,9.36
2022-11-06T19:36:36.988Z,9.26
2022-11-06T19:39:08.520Z,9.21
2022-11-06T19:41:36.633Z,9.27
2022-11-06T19:44:04.855Z,9.03
2022-11-06T19:46:35.986Z,9.20
2022-11-06T19:49:06.885Z,9.16
2022-11-06T19:51:37.881Z,9.03
2022-11-06T19:54:07.832Z,9.17
2022-11-06T19:56:37.341Z,9.25
2022-11-06T19:59:25.960Z,9.27
2022-11-06T20:01:54.507Z,9.16
2022-11-06T20:04:22.962Z,8.97
2022-11-06T20:06:51.700Z,9.23
2022-11-06T20:09:19.813Z,9.27
2022-11-06T20:11:47.858Z,9.18
2022-11-06T20:14:19.034Z,9.02
2022-11-06T20:16:48.098Z,9.21
2022-11-06T20:19:16.123Z,9.31
2022-11-06T20:21:44.145Z,9.32
2022-11-06T20:24:12.327Z,9.31
2022-11-06T20:26:40.904Z,9.34
2022-11-06T20:29:09.442Z,9.15
2022-11-06T20:31:37.883Z,9.22
2022-11-06T20:34:07.024Z,9.22
2022-11-06T20:36:36.033Z,9.23
2022-11-06T20:39:04.675Z,9.18
2022-11-06T20:41:32.725Z,9.03
2022-11-06T20:44:02.561Z,9.21
2022-11-06T20:46:31.005Z,9.26
2022-11-06T20:48:59.116Z,8.94
2022-11-06T20:51:29.617Z,9.18
2022-11-06T20:53:57.840Z,8.99
2022-11-06T20:56:27.091Z,9.24
2022-11-06T20:58:56.625Z,9.02
2022-11-06T21:01:28.023Z,9.25
2022-11-06T21:03:58.493Z,9.09
2022-11-06T21:06:34.340Z,9.23
2022-11-06T21:09:08.922Z,9.25
2022-11-06T21:11:40.699Z,9.36
2022-11-06T21:14:08.770Z,9.30
2022-11-06T21:16:37.650Z,9.34
2022-11-06T21:19:07.881Z,9.31
2022-11-06T21:21:39.226Z,9.35
2022-11-06T21:24:08.483Z,9.34
2022-11-06T21:26:38.087Z,9.33
2022-11-06T21:29:15.480Z,9.33
2022-11-06T21:31:49.016Z,9.23
2022-11-06T21:34:19.453Z,9.24
2022-11-06T21:36:48.241Z,9.31
2022-11-06T21:39:19.609Z,9.27
2022-11-06T21:41:47.869Z,9.20
2022-11-06T21:44:18.251Z,9.14
2022-11-06T21:46:46.544Z,9.15
2022-11-06T21:49:14.980Z,9.18
2022-11-06T21:51:43.395Z,9.13
2022-11-06T21:54:31.517Z,9.06
2022-11-06T21:56:59.448Z,9.11
2022-11-06T21:59:29.378Z,9.12
2022-11-06T22:01:57.903Z,8.99
2022-11-06T22:04:26.042Z,8.92
2022-11-06T22:06:55.479Z,8.48
2022-11-06T22:09:25.597Z,8.77
2022-11-06T22:11:54.552Z,8.75
2022-11-06T22:14:22.995Z,8.71
2022-11-06T22:16:51.191Z,7.91
2022-11-06T22:19:19.298Z,8.47
2022-11-06T22:21:47.612Z,8.41
2022-11-06T22:24:16.082Z,8.37
2022-11-06T22:26:44.055Z,8.32
2022-11-06T22:29:14.624Z,8.37
2022-11-06T22:31:42.866Z,8.43
2022-11-06T22:34:12.814Z,8.42
2022-11-06T22:36:41.949Z,8.42
2022-11-06T22:39:12.617Z,8.43
2022-11-06T22:41:41.293Z,8.12
2022-11-06T22:44:09.809Z,8.09
2022-11-06T22:46:38.045Z,7.85
2022-11-06T22:49:08.636Z,8.36
2022-11-06T22:51:36.984Z,8.33
2022-11-06T22:54:05.981Z,8.31
2022-11-06T22:56:35.765Z,8.27
2022-11-06T22:59:09.061Z,8.19
2022-11-06T23:01:42.345Z,8.18
2022-11-06T23:04:17.411Z,7.92
2022-11-06T23:06:47.469Z,7.99
2022-11-06T23:09:15.408Z,7.74
2022-11-06T23:11:47.102Z,7.90
2022-11-06T23:14:15.070Z,7.90
2022-11-06T23:16:58.318Z,7.89
2022-11-06T23:19:28.616Z,7.67
2022-11-06T23:22:17.125Z,8.02
2022-11-06T23:24:45.752Z,8.05
2022-11-06T23:27:16.578Z,7.94
2022-11-06T23:29:44.678Z,8.10
2022-11-06T23:32:12.666Z,8.18
2022-11-06T23:34:42.659Z,8.10
2022-11-06T23:37:10.877Z,8.17
2022-11-06T23:39:41.038Z,8.22
2022-11-06T23:42:13.916Z,8.08
2022-11-06T23:45:00.412Z,8.35
2022-11-06T23:47:28.744Z,8.36
2022-11-06T23:49:56.724Z,8.41
2022-11-06T23:52:24.984Z,8.37
2022-11-06T23:54:53.485Z,8.46
2022-11-06T23:57:22.019Z,8.45
2022-11-06T23:59:49.837Z,8.51
